createdAt,value
2023-02-02T00:01:58.487Z,101517.53
2023-02-02T00:04:39.620Z,101512.28
2023-02-02T00:07:11.673Z,101516.53
2023-02-02T00:09:43.757Z,101519.19
2023-02-02T00:12:15.897Z,101525.25
2023-02-02T00:14:47.931Z,101512.38
2023-02-02T00:17:20.000Z,101518.31
2023-02-02T00:19:52.081Z,101527.06
2023-02-02T00:22:24.305Z,101523.59
2023-02-02T00:24:56.450Z,101523.34
2023-02-02T00:27:30.397Z,101519.88
2023-02-02T00:30:02.547Z,101521.56
2023-02-02T00:32:34.601Z,101517.22
2023-02-02T00:35:08.423Z,101517.13
2023-02-02T00:37:40.418Z,101513.75
2023-02-02T00:40:12.655Z,101521.50
2023-02-02T00:42:49.369Z,101522.13
2023-02-02T00:45:22.323Z,101548.06
2023-02-02T00:47:54.615Z,101533.38
2023-02-02T00:50:26.665Z,101526.31
2023-02-02T00:52:59.414Z,101544.25
2023-02-02T00:55:31.539Z,101561.59
2023-02-02T00:58:03.738Z,101557.16
2023-02-02T01:00:36.237Z,101553.50
2023-02-02T01:03:08.239Z,101552.69
2023-02-02T01:05:43.561Z,101564.94
2023-02-02T01:08:15.646Z,101559.00
2023-02-02T01:10:47.662Z,101572.00
2023-02-02T01:13:19.609Z,101572.75
2023-02-02T01:15:56.759Z,101577.75
2023-02-02T01:18:29.938Z,101573.19
2023-02-02T01:21:08.108Z,101579.28
2023-02-02T01:23:40.729Z,101583.50
2023-02-02T01:26:14.881Z,101592.06
2023-02-02T01:28:47.547Z,101579.00
2023-02-02T01:31:20.550Z,101585.09
2023-02-02T01:33:52.985Z,101590.31
2023-02-02T01:36:25.292Z,101595.59
2023-02-02T01:38:58.815Z,101597.25
2023-02-02T01:41:30.797Z,101590.34
2023-02-02T01:44:06.369Z,101601.47
2023-02-02T01:46:38.522Z,101595.66
2023-02-02T01:49:18.555Z,101606.97
2023-02-02T01:51:58.959Z,101607.03
2023-02-02T01:54:40.895Z,101606.16
2023-02-02T01:57:26.471Z,101610.44
2023-02-02T02:00:03.658Z,101611.25
2023-02-02T02:02:36.680Z,101604.47
2023-02-02T02:05:10.943Z,101611.50
2023-02-02T02:07:44.676Z,101608.00
2023-02-02T02:10:21.273Z,101609.72
2023-02-02T02:12:53.234Z,101612.16
2023-02-02T02:15:47.686Z,101615.72
2023-02-02T02:18:31.843Z,101617.38
2023-02-02T02:21:59.353Z,101623.22
2023-02-02T02:25:20.032Z,101625.78
2023-02-02T02:28:29.425Z,101633.28
2023-02-02T02:31:56.136Z,101640.06
2023-02-02T02:35:01.475Z,101640.84
2023-02-02T02:37:54.518Z,101638.13
2023-02-02T02:40:37.605Z,101642.63
2023-02-02T02:43:17.608Z,101653.94
2023-02-02T02:45:50.785Z,101657.63
2023-02-02T02:48:25.993Z,101658.63
2023-02-02T02:51:09.852Z,101649.97
2023-02-02T02:53:41.856Z,101660.53
2023-02-02T02:56:23.263Z,101665.81
2023-02-02T02:58:59.734Z,101665.94
2023-02-02T03:02:00.833Z,101675.44
2023-02-02T03:05:03.566Z,101680.00
2023-02-02T03:08:01.576Z,101676.63
2023-02-02T03:10:35.523Z,101684.25
2023-02-02T03:13:11.221Z,101677.44
2023-02-02T03:15:45.113Z,101681.59
2023-02-02T03:18:40.070Z,101685.22
2023-02-02T03:21:14.711Z,101682.72
2023-02-02T03:23:55.448Z,101687.03
2023-02-02T03:26:28.114Z,101691.13
2023-02-02T03:29:01.560Z,101690.34
2023-02-02T03:31:35.204Z,101691.16
2023-02-02T03:34:07.392Z,101692.06
2023-02-02T03:36:39.436Z,101676.34
2023-02-02T03:39:11.422Z,101694.47
2023-02-02T03:41:43.369Z,101691.69
2023-02-02T03:44:15.759Z,101694.00
2023-02-02T03:46:47.685Z,101696.34
2023-02-02T03:49:19.622Z,101701.31
2023-02-02T03:51:51.634Z,101701.13
2023-02-02T03:54:23.690Z,101704.44
2023-02-02T03:56:55.696Z,101709.47
2023-02-02T03:59:37.731Z,101708.56
2023-02-02T04:02:10.193Z,101711.94
2023-02-02T04:04:44.794Z,101719.81
2023-02-02T04:07:16.906Z,101729.91
2023-02-02T04:09:48.861Z,101735.44
2023-02-02T04:12:21.163Z,101732.13
2023-02-02T04:14:53.201Z,101733.72
2023-02-02T04:17:25.602Z,101733.66
2023-02-02T04:19:58.620Z,101736.34
2023-02-02T04:22:30.591Z,101744.97
2023-02-02T04:25:09.436Z,101750.25
2023-02-02T04:27:41.410Z,101751.81
2023-02-02T04:30:23.392Z,101751.72
2023-02-02T04:32:55.386Z,101751.84
2023-02-02T04:35:27.495Z,101751.75
2023-02-02T04:37:59.500Z,101744.09
2023-02-02T04:40:31.502Z,101753.53
2023-02-02T04:43:05.949Z,101750.09
2023-02-02T04:45:38.602Z,101745.69
2023-02-02T04:48:10.896Z,101737.66
2023-02-02T04:50:42.826Z,101742.97
2023-02-02T04:53:14.761Z,101745.69
2023-02-02T04:58:32.775Z,101740.34
2023-02-02T05:01:15.699Z,101745.56
2023-02-02T05:03:48.832Z,101755.09
2023-02-02T05:06:20.932Z,101753.25
2023-02-02T05:08:52.958Z,101750.59
2023-02-02T05:11:24.998Z,101754.91
2023-02-02T05:13:56.961Z,101755.75
2023-02-02T05:16:29.352Z,101753.06
2023-02-02T05:19:01.431Z,101748.59
2023-02-02T05:21:33.422Z,101762.34
2023-02-02T05:24:05.671Z,101764.16
2023-02-02T05:26:38.331Z,101772.84
2023-02-02T05:29:10.344Z,101771.09
2023-02-02T05:31:42.384Z,101773.69
2023-02-02T05:34:14.409Z,101775.31
2023-02-02T05:36:46.499Z,101779.75
2023-02-02T05:39:18.808Z,101785.66
2023-02-02T05:41:50.741Z,101783.97
2023-02-02T05:44:22.797Z,101794.28
2023-02-02T05:46:55.127Z,101789.88
2023-02-02T05:49:27.184Z,101795.06
2023-02-02T05:51:59.853Z,101797.59
2023-02-02T05:54:31.841Z,101801.06
2023-02-02T05:57:03.853Z,101801.81
2023-02-02T05:59:35.850Z,101792.41
2023-02-02T06:02:07.883Z,101801.94
2023-02-02T06:04:39.872Z,101803.56
2023-02-02T06:07:12.561Z,101807.91
2023-02-02T06:09:44.579Z,101807.97
2023-02-02T06:12:16.519Z,101803.66
2023-02-02T06:14:48.478Z,101808.84
2023-02-02T06:17:20.468Z,101814.03
2023-02-02T06:19:55.140Z,101812.31
2023-02-02T06:22:32.165Z,101822.78
2023-02-02T06:25:05.656Z,101822.81
2023-02-02T06:27:37.610Z,101822.88
2023-02-02T06:30:10.738Z,101826.25
2023-02-02T06:32:43.314Z,101832.38
2023-02-02T06:35:15.597Z,101837.66
2023-02-02T06:37:47.680Z,101838.56
2023-02-02T06:40:19.719Z,101848.88
2023-02-02T06:42:59.949Z,101846.31
2023-02-02T06:45:31.870Z,101851.53
2023-02-02T06:48:10.847Z,101864.50
2023-02-02T06:50:43.176Z,101855.78
2023-02-02T06:53:16.031Z,101866.19
2023-02-02T06:55:56.772Z,101855.09
2023-02-02T06:58:30.055Z,101858.59
2023-02-02T07:01:12.663Z,101859.50
2023-02-02T07:03:50.292Z,101854.31
2023-02-02T07:06:29.211Z,101856.19
2023-02-02T07:09:03.422Z,101862.31
2023-02-02T07:11:43.189Z,101864.91
2023-02-02T07:14:16.885Z,101859.63
2023-02-02T07:16:48.829Z,101866.50
2023-02-02T07:19:20.809Z,101869.25
2023-02-02T07:21:52.827Z,101864.78
2023-02-02T07:24:24.804Z,101875.16
2023-02-02T07:26:58.156Z,101877.84
2023-02-02T07:29:30.327Z,101883.34
2023-02-02T07:32:02.368Z,101892.88
2023-02-02T07:34:38.382Z,101891.16
2023-02-02T07:37:10.816Z,101896.41
2023-02-02T07:39:48.091Z,101905.22
2023-02-02T07:42:20.064Z,101904.44
2023-02-02T07:44:52.023Z,101907.28
2023-02-02T07:47:25.404Z,101902.13
2023-02-02T07:49:57.661Z,101904.03
2023-02-02T07:52:30.135Z,101906.81
2023-02-02T07:55:17.983Z,101915.59
2023-02-02T07:57:52.835Z,101922.56
2023-02-02T08:00:26.369Z,101928.63
2023-02-02T08:02:58.458Z,101926.28
2023-02-02T08:05:30.435Z,101934.88
2023-02-02T08:08:13.238Z,101937.56
2023-02-02T08:10:54.964Z,101940.25
2023-02-02T08:13:26.882Z,101952.50
2023-02-02T08:15:59.052Z,101957.75
2023-02-02T08:18:31.222Z,101953.44
2023-02-02T08:21:13.203Z,101959.66
2023-02-02T08:23:45.876Z,101965.06
2023-02-02T08:26:27.793Z,101970.41
2023-02-02T08:29:04.489Z,101974.06
2023-02-02T08:31:42.085Z,101969.84
2023-02-02T08:34:18.225Z,101977.91
2023-02-02T08:36:50.244Z,101987.56
2023-02-02T08:39:22.764Z,101980.69
2023-02-02T08:41:58.223Z,101992.53
2023-02-02T08:44:44.178Z,102002.16
2023-02-02T08:47:24.132Z,101999.84
2023-02-02T08:49:56.197Z,102003.41
2023-02-02T08:52:28.155Z,101999.09
2023-02-02T08:55:00.138Z,102000.84
2023-02-02T08:57:32.854Z,102019.13
2023-02-02T09:00:06.888Z,102018.44
2023-02-02T09:02:38.972Z,102019.53
2023-02-02T09:05:10.974Z,102032.00
2023-02-02T09:07:44.466Z,102034.19
2023-02-02T09:10:16.945Z,102032.88
2023-02-02T09:12:48.946Z,102026.19
2023-02-02T09:15:21.002Z,102031.81
2023-02-02T09:17:55.511Z,102038.06
2023-02-02T09:20:27.529Z,102041.50
2023-02-02T09:23:02.602Z,102049.38
2023-02-02T09:25:34.591Z,102058.09
2023-02-02T09:28:06.954Z,102048.59
2023-02-02T09:30:39.012Z,102052.94
2023-02-02T09:33:11.107Z,102052.19
2023-02-02T09:35:43.064Z,102057.44
2023-02-02T09:38:15.039Z,102059.16
2023-02-02T09:40:46.981Z,102066.19
2023-02-02T09:43:33.896Z,102063.47
2023-02-02T09:46:20.904Z,102062.69
2023-02-02T09:49:08.285Z,102070.47
2023-02-02T09:51:45.770Z,102072.19
2023-02-02T09:54:28.815Z,102082.69
2023-02-02T09:57:08.996Z,102086.28
2023-02-02T09:59:43.399Z,102091.28
2023-02-02T10:02:24.449Z,102087.03
2023-02-02T10:05:11.275Z,102095.72
2023-02-02T10:07:48.795Z,102102.69
2023-02-02T10:10:41.623Z,102095.09
2023-02-02T10:13:26.147Z,102084.94
2023-02-02T10:16:19.598Z,102097.31
2023-02-02T10:19:06.539Z,102095.47
2023-02-02T10:22:19.285Z,102105.78
2023-02-02T10:24:51.868Z,102114.44
2023-02-02T10:27:38.804Z,102104.94
2023-02-02T10:34:38.511Z,102110.28
2023-02-02T10:37:19.273Z,102113.91
2023-02-02T10:40:38.305Z,102115.75
2023-02-02T10:43:40.396Z,102130.59
2023-02-02T10:46:26.733Z,102126.19
2023-02-02T10:50:22.642Z,102133.06
2023-02-02T10:53:03.494Z,102147.63
2023-02-02T10:55:46.444Z,102149.34
2023-02-02T10:58:28.374Z,102149.34
2023-02-02T11:01:07.986Z,102148.63
2023-02-02T11:03:43.539Z,102146.91
2023-02-02T11:06:35.082Z,102149.56
2023-02-02T11:09:13.701Z,102154.22
2023-02-02T11:14:47.485Z,102159.50
2023-02-02T11:17:23.494Z,102161.06
2023-02-02T11:19:58.598Z,102165.97
2023-02-02T11:22:35.243Z,102166.72
2023-02-02T11:25:32.590Z,102165.94
2023-02-02T11:28:20.162Z,102166.13
2023-02-02T11:30:53.349Z,102160.25
2023-02-02T11:33:48.645Z,102161.59
2023-02-02T11:36:22.184Z,102155.03
2023-02-02T11:39:21.478Z,102156.16
2023-02-02T11:42:07.579Z,102158.81
2023-02-02T11:44:40.657Z,102163.16
2023-02-02T11:47:24.301Z,102167.41
2023-02-02T11:49:59.696Z,102178.53
2023-02-02T11:52:33.895Z,102168.25
2023-02-02T11:55:48.332Z,102171.63
2023-02-02T11:58:28.792Z,102174.47
2023-02-02T12:01:31.580Z,102172.09
2023-02-02T12:04:24.819Z,102175.94
2023-02-02T12:06:57.200Z,102170.28
2023-02-02T12:09:29.178Z,102171.03
2023-02-02T12:12:03.488Z,102173.28
2023-02-02T12:15:33.135Z,102171.59
2023-02-02T12:18:45.079Z,102165.03
2023-02-02T12:21:49.985Z,102169.09
2023-02-02T12:25:02.711Z,102165.50
2023-02-02T12:28:18.295Z,102163.88
2023-02-02T12:30:58.865Z,102169.47
2023-02-02T12:34:05.103Z,102157.63
2023-02-02T12:36:42.969Z,102161.34
2023-02-02T12:39:48.835Z,102161.38
2023-02-02T12:42:34.946Z,102160.41
2023-02-02T12:45:52.160Z,102162.66
2023-02-02T12:48:34.421Z,102165.22
2023-02-02T12:51:09.643Z,102162.78
2023-02-02T12:54:43.209Z,102160.44
2023-02-02T13:02:03.720Z,102157.75
2023-02-02T13:04:54.556Z,102163.31
2023-02-02T13:12:01.376Z,102157.91
2023-02-02T13:14:45.400Z,102158.88
2023-02-02T13:17:49.691Z,102156.34
2023-02-02T13:20:43.387Z,102157.25
2023-02-02T13:23:34.017Z,102163.31
2023-02-02T13:26:35.267Z,102151.91
2023-02-02T13:30:04.734Z,102162.19
2023-02-02T13:32:44.945Z,102156.72
2023-02-02T13:35:39.885Z,102157.44
2023-02-02T13:38:23.186Z,102168.56
2023-02-02T13:40:59.540Z,102171.06
2023-02-02T13:43:51.558Z,102166.53
2023-02-02T13:46:50.619Z,102169.06
2023-02-02T13:49:30.792Z,102169.00
2023-02-02T13:52:27.060Z,102176.97
2023-02-02T13:55:39.257Z,102174.22
2023-02-02T13:58:50.415Z,102177.50
2023-02-02T14:01:23.660Z,102185.47
2023-02-02T14:03:57.715Z,102195.00
2023-02-02T14:06:52.553Z,102193.25
2023-02-02T14:09:28.740Z,102187.97
2023-02-02T14:12:07.213Z,102192.38
2023-02-02T14:14:46.675Z,102195.03
2023-02-02T14:17:21.751Z,102186.16
2023-02-02T14:20:02.501Z,102190.34
2023-02-02T14:22:54.577Z,102184.22
2023-02-02T14:25:29.676Z,102174.63
2023-02-02T14:28:09.166Z,102180.84
2023-02-02T14:30:41.345Z,102176.59
2023-02-02T14:33:22.198Z,102177.94
2023-02-02T14:36:02.488Z,102183.19
2023-02-02T14:38:55.996Z,102185.78
2023-02-02T14:42:10.394Z,102186.19
2023-02-02T14:45:15.490Z,102194.03
2023-02-02T14:48:21.180Z,102201.78
2023-02-02T14:50:58.528Z,102208.81
2023-02-02T14:53:48.768Z,102211.25
2023-02-02T14:56:22.576Z,102207.56
2023-02-02T14:59:00.797Z,102217.22
2023-02-02T15:01:35.049Z,102214.56
2023-02-02T15:04:22.360Z,102207.69
2023-02-02T15:06:54.869Z,102224.00
2023-02-02T15:12:47.287Z,102225.31
2023-02-02T15:15:21.456Z,102224.59
2023-02-02T15:18:33.587Z,102229.06
2023-02-02T15:21:08.323Z,102238.63
2023-02-02T15:23:45.055Z,102241.91
2023-02-02T15:26:28.689Z,102240.63
2023-02-02T15:29:07.177Z,102245.06
2023-02-02T15:31:45.883Z,102246.47
2023-02-02T15:34:24.911Z,102259.59
2023-02-02T15:37:06.415Z,102262.09
2023-02-02T15:39:55.941Z,102264.66
2023-02-02T15:42:53.986Z,102275.66
2023-02-02T15:45:43.696Z,102274.47
2023-02-02T15:48:24.264Z,102268.44
2023-02-02T15:51:05.094Z,102275.53
2023-02-02T15:53:43.320Z,102271.06
2023-02-02T15:56:27.055Z,102265.81
2023-02-02T15:59:00.649Z,102274.44
2023-02-02T16:01:46.741Z,102279.38
2023-02-02T16:04:29.247Z,102282.75
2023-02-02T16:07:02.767Z,102280.09
2023-02-02T16:09:37.056Z,102288.84
2023-02-02T16:12:21.449Z,102290.50
2023-02-02T16:14:55.452Z,102295.72
2023-02-02T16:17:35.340Z,102300.03
2023-02-02T16:20:15.914Z,102294.75
2023-02-02T16:22:48.555Z,102298.84
2023-02-02T16:25:23.218Z,102295.31
2023-02-02T16:27:56.229Z,102298.00
2023-02-02T16:30:37.340Z,102294.38
2023-02-02T16:33:37.571Z,102312.44
2023-02-02T16:36:26.787Z,102296.75
2023-02-02T16:39:01.160Z,102299.84
2023-02-02T16:41:35.820Z,102303.91
2023-02-02T16:44:35.983Z,102305.38
2023-02-02T16:47:28.471Z,102308.03
2023-02-02T16:50:09.519Z,102315.22
2023-02-02T16:52:52.017Z,102310.13
2023-02-02T16:55:26.645Z,102318.47
2023-02-02T16:58:00.670Z,102309.47
2023-02-02T17:00:33.589Z,102308.53
2023-02-02T17:03:23.147Z,102298.56
2023-02-02T17:05:58.811Z,102296.56
2023-02-02T17:08:36.553Z,102296.50
2023-02-02T17:11:27.220Z,102296.03
2023-02-02T17:16:29.838Z,102307.34
2023-02-02T17:19:01.945Z,102309.81
2023-02-02T17:21:40.226Z,102315.28
2023-02-02T17:24:12.373Z,102324.25
2023-02-02T17:26:45.597Z,102324.16
2023-02-02T17:32:18.833Z,102327.53
2023-02-02T17:34:50.947Z,102327.16
2023-02-02T17:37:22.900Z,102326.00
2023-02-02T17:39:59.342Z,102321.63
2023-02-02T17:45:34.706Z,102325.22
2023-02-02T17:48:07.058Z,102320.22
2023-02-02T17:50:40.150Z,102316.75
2023-02-02T17:53:16.832Z,102309.78
2023-02-02T17:56:57.897Z,102312.16
2023-02-02T17:59:32.127Z,102311.75
2023-02-02T18:02:21.522Z,102303.63
2023-02-02T18:04:55.814Z,102301.22
2023-02-02T18:07:27.824Z,102301.31
2023-02-02T18:10:19.540Z,102304.09
2023-02-02T18:12:51.785Z,102309.34
2023-02-02T18:15:24.562Z,102321.31
2023-02-02T18:17:56.985Z,102311.06
2023-02-02T18:20:29.005Z,102312.72
2023-02-02T18:23:01.016Z,102303.41
2023-02-02T18:25:33.127Z,102308.59
2023-02-02T18:28:06.657Z,102306.72
2023-02-02T18:30:40.079Z,102299.03
2023-02-02T18:33:13.749Z,102290.31
2023-02-02T18:35:53.029Z,102280.06
2023-02-02T18:38:25.095Z,102287.72
2023-02-02T18:40:57.578Z,102272.75
2023-02-02T18:43:29.964Z,102275.09
2023-02-02T18:46:40.093Z,102271.47
2023-02-02T18:49:12.217Z,102271.41
2023-02-02T18:51:44.345Z,102267.47
2023-02-02T18:54:16.883Z,102265.09
2023-02-02T18:56:49.038Z,102264.25
2023-02-02T18:59:21.279Z,102262.56
2023-02-02T19:01:53.333Z,102260.00
2023-02-02T19:07:56.545Z,102247.69
2023-02-02T19:10:28.665Z,102248.06
2023-02-02T19:13:15.865Z,102251.59
2023-02-02T19:15:50.130Z,102238.91
2023-02-02T19:19:47.157Z,102228.09
2023-02-02T19:22:25.135Z,102224.28
2023-02-02T19:25:25.011Z,102226.94
2023-02-02T19:28:00.163Z,102223.75
2023-02-02T19:30:36.986Z,102214.47
2023-02-02T19:33:12.583Z,102220.16
2023-02-02T19:35:49.319Z,102224.34
2023-02-02T19:38:22.020Z,102220.22
2023-02-02T19:40:54.019Z,102213.47
2023-02-02T19:43:30.897Z,102203.72
2023-02-02T19:46:56.745Z,102194.16
2023-02-02T19:49:35.271Z,102195.16
2023-02-02T19:52:25.693Z,102198.56
2023-02-02T20:01:46.000Z,102178.50
2023-02-02T20:04:20.237Z,102183.78
2023-02-02T20:06:59.402Z,102180.31
2023-02-02T20:10:12.046Z,102178.53
2023-02-02T20:12:46.504Z,102161.91
2023-02-02T20:15:36.116Z,102161.22
2023-02-02T20:18:41.968Z,102156.03
2023-02-02T20:21:41.832Z,102152.28
2023-02-02T20:24:39.272Z,102141.78
2023-02-02T20:27:20.549Z,102139.56
2023-02-02T20:29:55.694Z,102137.97
2023-02-02T20:32:37.952Z,102133.22
2023-02-02T20:36:48.295Z,102129.34
2023-02-02T20:39:37.605Z,102120.91
2023-02-02T20:42:17.418Z,102121.22
2023-02-02T20:44:50.819Z,102122.03
2023-02-02T20:47:24.467Z,102117.59
2023-02-02T20:49:58.261Z,102114.41
2023-02-02T20:52:51.000Z,102118.34
2023-02-02T20:55:23.903Z,102115.34
2023-02-02T20:57:56.362Z,102119.72
2023-02-02T21:00:28.600Z,102112.09
2023-02-02T21:03:00.705Z,102115.91
2023-02-02T21:05:49.069Z,102116.84
2023-02-02T21:08:21.044Z,102109.22
2023-02-02T21:10:53.050Z,102119.75
2023-02-02T21:13:25.200Z,102121.22
2023-02-02T21:15:57.452Z,102129.00
2023-02-02T21:18:30.098Z,102118.81
2023-02-02T21:21:02.280Z,102117.94
2023-02-02T21:23:34.311Z,102118.97
2023-02-02T21:26:06.592Z,102118.19
2023-02-02T21:28:39.607Z,102121.00
2023-02-02T21:31:15.035Z,102113.47
2023-02-02T21:33:52.501Z,102102.44
2023-02-02T21:36:36.838Z,102096.69
2023-02-02T21:39:43.003Z,102089.78
2023-02-02T21:42:18.416Z,102091.69
2023-02-02T21:44:59.736Z,102087.50
2023-02-02T21:47:39.101Z,102082.53
2023-02-02T21:50:14.760Z,102084.44
2023-02-02T21:52:48.519Z,102076.78
2023-02-02T21:55:40.492Z,102079.41
2023-02-02T21:58:20.329Z,102069.44
2023-02-02T22:01:03.801Z,102058.22
2023-02-02T22:03:38.379Z,102058.66
2023-02-02T22:06:37.765Z,102046.59
2023-02-02T22:09:18.020Z,102036.53
2023-02-02T22:11:58.563Z,102031.41
2023-02-02T22:14:39.154Z,102028.06
2023-02-02T22:17:39.943Z,102032.38
2023-02-02T22:23:23.207Z,102025.03
2023-02-02T22:26:01.820Z,102028.69
2023-02-02T22:28:40.051Z,102033.25
2023-02-02T22:31:12.360Z,102034.13
2023-02-02T22:36:34.803Z,102037.56
2023-02-02T22:39:19.045Z,102037.53
2023-02-02T22:41:51.103Z,102022.91
2023-02-02T22:44:26.259Z,102022.28
2023-02-02T22:47:20.411Z,102012.84
2023-02-02T22:50:38.201Z,102008.63
2023-02-02T22:53:12.616Z,102002.56
2023-02-02T22:55:45.014Z,101996.56
2023-02-02T22:58:17.022Z,101980.84
2023-02-02T23:00:48.993Z,101977.34
2023-02-02T23:03:52.739Z,101975.63
2023-02-02T23:06:25.250Z,101958.19
2023-02-02T23:08:57.203Z,101973.25
2023-02-02T23:11:29.175Z,101982.00
2023-02-02T23:14:01.176Z,101976.72
2023-02-02T23:17:07.543Z,101980.25
2023-02-02T23:19:47.993Z,101964.41
2023-02-02T23:22:22.835Z,101979.31
2023-02-02T23:24:55.175Z,101965.63
2023-02-02T23:27:27.220Z,101965.66
2023-02-02T23:29:59.319Z,101961.34
2023-02-02T23:32:52.240Z,101969.44
2023-02-02T23:35:24.193Z,101960.78
2023-02-02T23:37:56.409Z,101959.91
2023-02-02T23:40:31.715Z,101969.63
2023-02-02T23:43:03.757Z,101977.53
2023-02-02T23:45:36.477Z,101969.63
2023-02-02T23:48:10.532Z,101964.50
2023-02-02T23:50:42.945Z,101974.91
2023-02-02T23:53:15.773Z,101964.34
2023-02-02T23:55:47.765Z,101965.22
2023-02-02T23:58:21.262Z,101966.94
